createdAt,value
2023-02-15T00:00:26.185Z,50.908112
2023-02-15T00:01:26.184Z,50.908100
2023-02-15T00:02:26.201Z,50.908100
2023-02-15T00:03:26.209Z,50.908104
2023-02-15T00:04:26.163Z,50.908134
2023-02-15T00:05:26.160Z,50.908100
2023-02-15T00:06:26.147Z,50.908134
2023-02-15T00:07:26.164Z,50.908096
2023-02-15T00:08:26.142Z,50.908066
2023-02-15T00:09:26.122Z,50.908142
2023-02-15T00:10:26.115Z,50.908131
2023-02-15T00:11:26.108Z,50.908134
2023-02-15T00:12:26.128Z,50.908092
2023-02-15T00:13:26.092Z,50.908077
2023-02-15T00:14:26.084Z,50.908115
2023-02-15T00:15:26.072Z,50.908157
2023-02-15T00:16:26.092Z,50.908096
2023-02-15T00:17:26.086Z,50.908134
2023-02-15T00:18:26.051Z,50.908112
2023-02-15T00:19:26.042Z,50.908115
2023-02-15T00:20:26.031Z,50.908150
2023-02-15T00:21:26.028Z,50.908165
2023-02-15T00:22:26.053Z,50.908077
2023-02-15T00:23:26.011Z,50.908104
2023-02-15T00:24:26.008Z,50.908127
2023-02-15T00:25:26.000Z,50.908119
2023-02-15T00:26:25.988Z,50.908089
2023-02-15T00:27:26.012Z,50.908119
2023-02-15T00:28:25.979Z,50.908100
2023-02-15T00:29:25.967Z,50.908092
2023-02-15T00:30:26.061Z,50.908134
2023-02-15T00:31:26.098Z,50.908138
2023-02-15T00:32:25.974Z,50.908131
2023-02-15T00:33:25.938Z,50.908123
2023-02-15T00:34:25.944Z,50.908127
2023-02-15T00:35:25.927Z,50.908131
2023-02-15T00:36:25.915Z,50.908115
2023-02-15T00:37:25.939Z,50.908112
2023-02-15T00:38:25.900Z,50.908104
2023-02-15T00:39:25.897Z,50.908203
2023-02-15T00:40:25.889Z,50.908184
2023-02-15T00:41:25.888Z,50.908154
2023-02-15T00:42:26.043Z,50.908146
2023-02-15T00:43:25.861Z,50.908173
2023-02-15T00:44:25.855Z,50.908154
2023-02-15T00:45:25.848Z,50.908150
2023-02-15T00:46:25.840Z,50.908157
2023-02-15T00:47:25.833Z,50.908138
2023-02-15T00:48:25.848Z,50.908112
2023-02-15T00:49:25.825Z,50.908123
2023-02-15T00:50:25.812Z,50.908131
2023-02-15T00:51:25.810Z,50.908134
2023-02-15T00:52:25.807Z,50.908112
2023-02-15T00:53:25.835Z,50.908123
2023-02-15T00:54:25.786Z,50.908173
2023-02-15T00:55:25.774Z,50.908218
2023-02-15T00:56:26.783Z,50.908360
2023-02-15T00:57:25.770Z,50.908119
2023-02-15T00:58:25.784Z,50.908066
2023-02-15T00:59:25.754Z,50.908203
2023-02-15T01:00:25.781Z,50.908173
2023-02-15T01:01:25.767Z,50.908081
2023-02-15T01:02:25.734Z,50.908047
2023-02-15T01:03:25.753Z,50.907986
2023-02-15T01:04:25.736Z,50.908005
2023-02-15T01:05:25.712Z,50.908077
2023-02-15T01:06:25.708Z,50.908176
2023-02-15T01:07:25.700Z,50.908123
2023-02-15T01:08:25.724Z,50.908119
2023-02-15T01:09:25.687Z,50.908157
2023-02-15T01:10:25.678Z,50.908161
2023-02-15T01:11:25.670Z,50.908169
2023-02-15T01:12:25.665Z,50.908150
2023-02-15T01:13:25.682Z,50.908146
2023-02-15T01:14:25.649Z,50.908131
2023-02-15T01:15:25.640Z,50.908119
2023-02-15T01:16:25.730Z,50.908119
2023-02-15T01:17:25.711Z,50.908131
2023-02-15T01:18:25.648Z,50.908115
2023-02-15T01:19:25.614Z,50.908131
2023-02-15T01:20:25.618Z,50.908131
2023-02-15T01:21:25.617Z,50.908146
2023-02-15T01:22:25.594Z,50.908150
2023-02-15T01:23:25.616Z,50.908157
2023-02-15T01:24:25.589Z,50.908100
2023-02-15T01:25:25.577Z,50.908157
2023-02-15T01:26:25.561Z,50.908157
2023-02-15T01:27:25.565Z,50.908188
2023-02-15T01:28:25.574Z,50.908138
2023-02-15T01:29:25.550Z,50.908134
2023-02-15T01:30:25.565Z,50.908154
2023-02-15T01:31:25.581Z,50.908184
2023-02-15T01:32:25.523Z,50.908131
2023-02-15T01:33:25.538Z,50.908138
2023-02-15T01:34:25.508Z,50.908165
2023-02-15T01:35:25.506Z,50.908199
2023-02-15T01:36:25.493Z,50.908165
2023-02-15T01:37:25.487Z,50.908169
2023-02-15T01:38:25.505Z,50.908188
2023-02-15T01:39:25.466Z,50.908115
2023-02-15T01:40:25.462Z,50.908100
2023-02-15T01:41:25.467Z,50.908131
2023-02-15T01:42:25.448Z,50.908134
2023-02-15T01:43:25.465Z,50.908081
2023-02-15T01:44:25.432Z,50.908150
2023-02-15T01:45:25.428Z,50.908123
2023-02-15T01:46:25.423Z,50.908138
2023-02-15T01:48:25.429Z,50.908108
2023-02-15T01:49:25.396Z,50.908161
2023-02-15T01:50:25.387Z,50.908131
2023-02-15T01:51:25.383Z,50.908146
2023-02-15T01:52:25.371Z,50.908154
2023-02-15T01:53:25.391Z,50.908157
2023-02-15T01:54:25.361Z,50.908123
2023-02-15T01:55:25.348Z,50.908123
2023-02-15T01:56:25.351Z,50.908146
2023-02-15T01:57:25.341Z,50.908234
2023-02-15T01:58:25.350Z,50.908176
2023-02-15T01:59:25.315Z,50.908058
2023-02-15T02:00:25.308Z,50.907928
2023-02-15T02:01:25.313Z,50.907990
2023-02-15T02:02:25.337Z,50.907974
2023-02-15T02:03:25.320Z,50.907951
2023-02-15T02:04:25.274Z,50.908081
2023-02-15T02:05:25.274Z,50.908077
2023-02-15T02:06:26.277Z,50.908096
2023-02-15T02:07:26.258Z,50.908138
2023-02-15T02:08:25.252Z,50.908142
2023-02-15T02:09:25.266Z,50.908058
2023-02-15T02:10:25.251Z,50.908020
2023-02-15T02:11:25.226Z,50.908108
2023-02-15T02:12:25.211Z,50.908123
2023-02-15T02:13:26.219Z,50.908142
2023-02-15T02:14:25.236Z,50.908138
2023-02-15T02:15:25.198Z,50.908089
2023-02-15T02:16:25.259Z,50.908115
2023-02-15T02:17:25.197Z,50.908127
2023-02-15T02:18:25.180Z,50.908127
2023-02-15T02:19:25.196Z,50.908085
2023-02-15T02:20:25.161Z,50.908070
2023-02-15T02:21:25.163Z,50.908062
2023-02-15T02:22:25.144Z,50.908062
2023-02-15T02:23:25.160Z,50.908085
2023-02-15T02:24:25.158Z,50.908157
2023-02-15T02:25:25.137Z,50.908218
2023-02-15T02:26:25.121Z,50.908161
2023-02-15T02:27:25.111Z,50.908161
2023-02-15T02:28:25.101Z,50.908169
2023-02-15T02:29:25.120Z,50.908165
2023-02-15T02:30:25.188Z,50.908184
2023-02-15T02:31:25.172Z,50.908180
2023-02-15T02:32:25.079Z,50.908188
2023-02-15T02:33:25.070Z,50.908203
2023-02-15T02:34:25.093Z,50.908192
2023-02-15T02:35:25.058Z,50.908150
2023-02-15T02:36:25.046Z,50.908157
2023-02-15T02:37:25.042Z,50.908119
2023-02-15T02:38:25.033Z,50.908218
2023-02-15T02:39:25.056Z,50.908253
2023-02-15T02:40:25.022Z,50.908222
2023-02-15T02:41:25.009Z,50.908173
2023-02-15T02:42:25.011Z,50.908157
2023-02-15T02:43:24.997Z,50.908138
2023-02-15T02:44:24.994Z,50.908165
2023-02-15T02:45:25.005Z,50.908199
2023-02-15T02:46:25.019Z,50.908127
2023-02-15T02:47:24.976Z,50.908131
2023-02-15T02:48:24.966Z,50.908161
2023-02-15T02:49:24.985Z,50.908184
2023-02-15T02:50:24.953Z,50.908199
2023-02-15T02:51:24.951Z,50.908195
2023-02-15T02:52:24.934Z,50.908134
2023-02-15T02:53:24.928Z,50.908176
2023-02-15T02:54:24.926Z,50.908142
2023-02-15T02:55:24.940Z,50.908096
2023-02-15T02:56:24.917Z,50.908154
2023-02-15T02:57:24.899Z,50.908176
2023-02-15T02:58:24.898Z,50.908154
2023-02-15T02:59:24.888Z,50.908165
2023-02-15T03:00:24.905Z,50.908157
2023-02-15T03:01:25.926Z,50.908199
2023-02-15T03:02:24.905Z,50.908161
2023-02-15T03:03:24.854Z,50.908180
2023-02-15T03:04:24.851Z,50.908192
2023-02-15T03:05:24.850Z,50.908150
2023-02-15T03:06:25.830Z,50.908157
2023-02-15T03:07:24.825Z,50.908173
2023-02-15T03:08:24.815Z,50.908119
2023-02-15T03:09:24.804Z,50.908115
2023-02-15T03:10:24.820Z,50.908115
2023-02-15T03:11:24.788Z,50.908127
2023-02-15T03:12:24.801Z,50.908115
2023-02-15T03:13:24.779Z,50.908127
2023-02-15T03:14:24.768Z,50.908161
2023-02-15T03:15:24.795Z,50.908173
2023-02-15T03:16:24.808Z,50.908131
2023-02-15T03:17:24.748Z,50.908146
2023-02-15T03:18:24.736Z,50.908180
2023-02-15T03:19:24.730Z,50.908154
2023-02-15T03:20:24.748Z,50.908188
2023-02-15T03:21:24.718Z,50.908134
2023-02-15T03:22:24.708Z,50.908142
2023-02-15T03:23:24.707Z,50.908115
2023-02-15T03:24:26.253Z,50.908096
2023-02-15T03:25:24.733Z,50.908104
2023-02-15T03:26:24.690Z,50.908150
2023-02-15T03:27:24.683Z,50.908211
2023-02-15T03:28:24.665Z,50.908146
2023-02-15T03:29:24.661Z,50.908142
2023-02-15T03:30:24.721Z,50.908115
2023-02-15T03:31:24.742Z,50.908134
2023-02-15T03:32:24.641Z,50.908108
2023-02-15T03:33:24.632Z,50.908089
2023-02-15T03:34:24.639Z,50.908123
2023-02-15T03:35:24.653Z,50.908146
2023-02-15T03:36:24.609Z,50.908173
2023-02-15T03:37:24.615Z,50.908169
2023-02-15T03:38:24.583Z,50.908131
2023-02-15T03:39:25.585Z,50.908146
2023-02-15T03:40:24.602Z,50.908176
2023-02-15T03:41:24.580Z,50.908310
2023-02-15T03:42:24.575Z,50.908234
2023-02-15T03:43:24.562Z,50.908333
2023-02-15T03:44:24.556Z,50.908306
2023-02-15T03:45:24.570Z,50.908329
2023-02-15T03:46:24.577Z,50.908260
2023-02-15T03:47:24.549Z,50.908234
2023-02-15T03:48:24.527Z,50.908253
2023-02-15T03:49:24.529Z,50.908279
2023-02-15T03:50:24.532Z,50.908207
2023-02-15T03:51:24.501Z,50.908276
2023-02-15T03:52:24.485Z,50.908363
2023-02-15T03:53:24.498Z,50.908485
2023-02-15T03:54:24.479Z,50.908421
2023-02-15T03:55:24.500Z,50.908562
2023-02-15T03:56:24.465Z,50.908665
2023-02-15T03:57:24.454Z,50.908726
2023-02-15T03:58:24.446Z,50.908844
2023-02-15T03:59:24.443Z,50.908745
2023-02-15T04:00:24.465Z,50.908695
2023-02-15T04:01:24.469Z,50.908695
2023-02-15T04:02:24.419Z,50.908695
2023-02-15T04:03:24.433Z,50.908695
2023-02-15T04:04:25.651Z,50.908695
2023-02-15T04:05:25.431Z,50.908695
2023-02-15T04:06:24.393Z,50.908676
2023-02-15T04:07:24.384Z,50.908699
2023-02-15T04:08:24.380Z,50.908684
2023-02-15T04:09:24.378Z,50.908691
2023-02-15T04:10:24.363Z,50.908543
2023-02-15T04:11:24.382Z,50.908443
2023-02-15T04:12:24.355Z,50.908554
2023-02-15T04:13:24.361Z,50.908443
2023-02-15T04:14:24.337Z,50.908466
2023-02-15T04:15:24.326Z,50.908401
2023-02-15T04:16:24.384Z,50.908314
2023-02-15T04:17:24.310Z,50.908161
2023-02-15T04:18:24.301Z,50.908001
2023-02-15T04:19:24.291Z,50.908218
2023-02-15T04:20:24.299Z,50.908150
2023-02-15T04:21:24.302Z,50.907948
2023-02-15T04:22:24.267Z,50.907814
2023-02-15T04:23:24.261Z,50.907867
2023-02-15T04:24:24.260Z,50.907951
2023-02-15T04:25:24.258Z,50.907944
2023-02-15T04:26:24.275Z,50.908058
2023-02-15T04:27:24.233Z,50.907993
2023-02-15T04:28:24.229Z,50.907906
2023-02-15T04:29:25.217Z,50.908012
2023-02-15T04:30:24.262Z,50.908081
2023-02-15T04:31:24.438Z,50.908279
2023-02-15T04:32:24.195Z,50.908096
2023-02-15T04:33:24.197Z,50.908070
2023-02-15T04:34:24.187Z,50.908337
2023-02-15T04:35:24.179Z,50.908283
2023-02-15T04:36:24.169Z,50.908070
2023-02-15T04:37:24.184Z,50.908138
2023-02-15T04:38:24.169Z,50.908123
2023-02-15T04:39:24.142Z,50.908108
2023-02-15T04:40:24.135Z,50.908012
2023-02-15T04:41:24.118Z,50.908020
2023-02-15T04:42:24.141Z,50.907894
2023-02-15T04:43:24.122Z,50.907833
2023-02-15T04:44:24.107Z,50.907833
2023-02-15T04:45:25.094Z,50.907833
2023-02-15T04:46:24.211Z,50.907833
2023-02-15T04:47:24.109Z,50.907833
2023-02-15T04:48:24.074Z,50.907833
2023-02-15T04:49:24.074Z,50.907833
2023-02-15T04:50:24.067Z,50.907833
2023-02-15T04:51:24.053Z,50.907833
2023-02-15T04:52:24.073Z,50.907787
2023-02-15T04:53:24.033Z,50.907780
2023-02-15T04:54:24.030Z,50.907780
2023-02-15T04:55:24.021Z,50.907837
2023-02-15T04:56:24.017Z,50.907852
2023-02-15T04:57:24.031Z,50.907749
2023-02-15T04:58:23.999Z,50.907810
2023-02-15T04:59:23.994Z,50.907841
2023-02-15T05:00:23.994Z,50.907841
2023-02-15T05:01:24.059Z,50.907841
2023-02-15T05:02:24.028Z,50.907841
2023-02-15T05:03:23.961Z,50.907841
2023-02-15T05:04:24.010Z,50.907841
2023-02-15T05:05:23.946Z,50.907841
2023-02-15T05:06:23.938Z,50.907841
2023-02-15T05:07:23.957Z,50.907841
2023-02-15T05:08:23.925Z,50.907841
2023-02-15T05:09:23.918Z,50.907841
2023-02-15T05:10:23.917Z,50.907841
2023-02-15T05:11:23.902Z,50.907841
2023-02-15T05:12:23.931Z,50.908081
2023-02-15T05:13:23.892Z,50.908222
2023-02-15T05:14:23.875Z,50.908436
2023-02-15T05:15:23.868Z,50.908257
2023-02-15T05:16:23.910Z,50.907715
2023-02-15T05:17:23.890Z,50.907993
2023-02-15T05:18:23.854Z,50.907997
2023-02-15T05:19:23.847Z,50.907982
2023-02-15T05:20:23.836Z,50.908157
2023-02-15T05:21:23.829Z,50.908005
2023-02-15T05:22:23.843Z,50.907982
2023-02-15T05:23:23.816Z,50.907925
2023-02-15T05:24:23.813Z,50.908077
2023-02-15T05:25:23.807Z,50.908077
2023-02-15T05:26:23.792Z,50.907974
2023-02-15T05:27:23.813Z,50.908127
2023-02-15T05:28:23.782Z,50.907997
2023-02-15T05:29:23.777Z,50.907623
2023-02-15T05:30:23.925Z,50.907894
2023-02-15T05:31:23.977Z,50.908176
2023-02-15T05:32:24.893Z,50.908165
2023-02-15T05:33:23.745Z,50.908115
2023-02-15T05:34:23.753Z,50.908039
2023-02-15T05:35:23.730Z,50.907997
2023-02-15T05:36:23.723Z,50.908024
2023-02-15T05:37:23.741Z,50.908066
2023-02-15T05:38:23.721Z,50.908108
2023-02-15T05:39:23.698Z,50.908104
2023-02-15T05:40:23.700Z,50.908184
2023-02-15T05:41:23.693Z,50.908089
2023-02-15T05:42:23.714Z,50.908123
2023-02-15T05:43:23.675Z,50.908180
2023-02-15T05:44:23.660Z,50.908100
2023-02-15T05:45:23.659Z,50.908051
2023-02-15T05:46:23.750Z,50.908157
2023-02-15T05:47:23.678Z,50.908051
2023-02-15T05:48:23.644Z,50.908180
2023-02-15T05:49:23.630Z,50.908169
2023-02-15T05:50:23.627Z,50.908165
2023-02-15T05:51:23.632Z,50.908176
2023-02-15T05:52:23.615Z,50.908123
2023-02-15T05:53:23.632Z,50.908070
2023-02-15T05:54:23.602Z,50.908119
2023-02-15T05:55:23.594Z,50.908195
2023-02-15T05:56:23.594Z,50.908092
2023-02-15T05:57:23.578Z,50.908119
2023-02-15T05:58:23.592Z,50.908039
2023-02-15T05:59:23.564Z,50.908104
2023-02-15T06:00:23.560Z,50.908104
2023-02-15T06:01:23.552Z,50.908138
2023-02-15T06:02:23.614Z,50.908115
2023-02-15T06:03:23.587Z,50.908165
2023-02-15T06:04:23.529Z,50.908138
2023-02-15T06:05:23.518Z,50.908115
2023-02-15T06:06:23.514Z,50.908112
2023-02-15T06:07:23.503Z,50.908070
2023-02-15T06:08:23.531Z,50.908073
2023-02-15T06:09:23.521Z,50.908131
2023-02-15T06:10:23.489Z,50.908115
2023-02-15T06:11:23.477Z,50.908142
2023-02-15T06:12:23.469Z,50.908104
2023-02-15T06:13:23.498Z,50.908131
2023-02-15T06:14:23.460Z,50.908134
2023-02-15T06:15:23.446Z,50.908123
2023-02-15T06:16:23.448Z,50.908081
2023-02-15T06:17:23.442Z,50.908127
2023-02-15T06:18:23.454Z,50.908123
2023-02-15T06:19:23.414Z,50.908127
2023-02-15T06:20:23.412Z,50.908176
2023-02-15T06:21:23.410Z,50.908195
2023-02-15T06:22:23.405Z,50.908112
2023-02-15T06:23:23.408Z,50.908077
2023-02-15T06:24:24.385Z,50.908089
2023-02-15T06:25:23.376Z,50.908108
2023-02-15T06:26:23.372Z,50.908104
2023-02-15T06:27:23.361Z,50.908085
2023-02-15T06:28:23.384Z,50.907997
2023-02-15T06:29:23.349Z,50.908012
2023-02-15T06:30:23.397Z,50.908115
2023-02-15T06:31:23.407Z,50.908104
2023-02-15T06:32:23.347Z,50.908142
2023-02-15T06:33:23.354Z,50.908234
2023-02-15T06:34:23.309Z,50.908047
2023-02-15T06:35:23.298Z,50.908165
2023-02-15T06:36:23.288Z,50.908161
2023-02-15T06:37:23.283Z,50.908165
2023-02-15T06:38:23.304Z,50.908112
2023-02-15T06:39:23.265Z,50.908112
2023-02-15T06:40:23.258Z,50.907990
2023-02-15T06:41:23.263Z,50.908031
2023-02-15T06:42:23.247Z,50.908070
2023-02-15T06:43:23.261Z,50.908127
2023-02-15T06:44:23.230Z,50.908112
2023-02-15T06:45:23.227Z,50.908161
2023-02-15T06:46:23.279Z,50.908157
2023-02-15T06:47:23.208Z,50.908115
2023-02-15T06:48:23.225Z,50.908100
2023-02-15T06:49:23.198Z,50.908119
2023-02-15T06:50:23.178Z,50.908123
2023-02-15T06:51:24.176Z,50.908146
2023-02-15T06:52:23.190Z,50.908199
2023-02-15T06:53:23.189Z,50.908192
2023-02-15T06:54:23.151Z,50.908138
2023-02-15T06:55:23.151Z,50.907978
2023-02-15T06:56:23.135Z,50.908085
2023-02-15T06:57:23.131Z,50.908195
2023-02-15T06:58:23.160Z,50.908192
2023-02-15T06:59:23.142Z,50.908085
2023-02-15T07:00:23.187Z,50.908092
2023-02-15T07:01:23.142Z,50.908096
2023-02-15T07:02:23.102Z,50.908100
2023-02-15T07:03:23.116Z,50.908150
2023-02-15T07:04:23.080Z,50.908150
2023-02-15T07:05:23.070Z,50.908150
2023-02-15T07:06:23.062Z,50.908165
2023-02-15T07:07:23.053Z,50.908089
2023-02-15T07:08:23.078Z,50.908173
2023-02-15T07:09:23.039Z,50.908169
2023-02-15T07:10:23.027Z,50.908161
2023-02-15T07:11:23.023Z,50.908157
2023-02-15T07:12:23.020Z,50.908157
2023-02-15T07:13:23.037Z,50.908161
2023-02-15T07:14:23.000Z,50.908146
2023-02-15T07:15:22.998Z,50.908127
2023-02-15T07:16:23.045Z,50.908184
2023-02-15T07:17:36.668Z,50.908176
2023-02-15T07:18:24.998Z,50.908127
2023-02-15T07:19:22.956Z,50.907986
2023-02-15T07:20:22.955Z,50.908241
2023-02-15T07:21:22.944Z,50.908234
2023-02-15T07:22:22.937Z,50.908169
2023-02-15T07:23:22.928Z,50.908146
2023-02-15T07:24:22.946Z,50.908138
2023-02-15T07:25:22.921Z,50.908062
2023-02-15T07:26:22.914Z,50.908134
2023-02-15T07:27:22.924Z,50.908157
2023-02-15T07:28:22.890Z,50.908154
2023-02-15T07:29:22.919Z,50.908100
2023-02-15T07:30:23.069Z,50.908218
2023-02-15T07:31:22.907Z,50.908165
2023-02-15T07:32:22.874Z,50.908173
2023-02-15T07:33:22.857Z,50.908089
2023-02-15T07:34:22.879Z,50.908112
2023-02-15T07:35:22.845Z,50.908142
2023-02-15T07:36:22.835Z,50.908119
2023-02-15T07:37:22.825Z,50.908089
2023-02-15T07:38:22.827Z,50.908096
2023-02-15T07:39:22.841Z,50.908104
2023-02-15T07:40:22.803Z,50.908142
2023-02-15T07:41:22.801Z,50.908119
2023-02-15T07:42:22.787Z,50.908161
2023-02-15T07:43:22.780Z,50.908077
2023-02-15T07:44:22.797Z,50.908092
2023-02-15T07:45:22.774Z,50.908161
2023-02-15T07:46:22.854Z,50.908230
2023-02-15T07:47:22.749Z,50.908131
2023-02-15T07:48:24.880Z,50.908115
2023-02-15T07:49:23.760Z,50.908028
2023-02-15T07:50:22.734Z,50.908169
2023-02-15T07:51:22.716Z,50.908234
2023-02-15T07:52:22.713Z,50.908215
2023-02-15T07:53:22.712Z,50.908154
2023-02-15T07:54:22.728Z,50.908112
2023-02-15T07:55:22.709Z,50.908146
2023-02-15T07:56:22.695Z,50.908146
2023-02-15T07:57:22.678Z,50.908096
2023-02-15T07:58:22.675Z,50.908131
2023-02-15T07:59:22.689Z,50.908077
2023-02-15T08:00:22.664Z,50.908127
2023-02-15T08:01:22.646Z,50.908180
2023-02-15T08:02:22.642Z,50.908249
2023-02-15T08:03:22.784Z,50.908169
2023-02-15T08:04:22.669Z,50.908081
2023-02-15T08:05:22.615Z,50.908070
2023-02-15T08:06:22.613Z,50.908230
2023-02-15T08:07:22.602Z,50.908104
2023-02-15T08:08:22.595Z,50.908203
2023-02-15T08:09:22.640Z,50.908222
2023-02-15T08:10:24.467Z,50.908173
2023-02-15T08:11:22.571Z,50.908100
2023-02-15T08:12:22.570Z,50.908058
2023-02-15T08:13:22.561Z,50.907986
2023-02-15T08:14:22.584Z,50.908218
2023-02-15T08:15:22.547Z,50.908169
2023-02-15T08:16:22.574Z,50.907978
2023-02-15T08:17:22.562Z,50.908131
2023-02-15T08:18:22.528Z,50.908184
2023-02-15T08:19:22.543Z,50.908180
2023-02-15T08:20:22.508Z,50.908180
2023-02-15T08:21:24.844Z,50.908180
2023-02-15T08:22:23.496Z,50.908016
2023-02-15T08:23:22.485Z,50.908016
2023-02-15T08:24:22.502Z,50.908066
2023-02-15T08:25:22.470Z,50.908119
2023-02-15T08:26:22.462Z,50.907799
2023-02-15T08:27:22.458Z,50.907948
2023-02-15T08:28:22.457Z,50.907948
2023-02-15T08:29:22.480Z,50.907948
2023-02-15T08:30:22.510Z,50.907948
2023-02-15T08:31:22.509Z,50.907997
2023-02-15T08:32:22.468Z,50.908237
2023-02-15T08:33:22.414Z,50.908222
2023-02-15T08:34:22.450Z,50.908081
2023-02-15T08:35:22.449Z,50.908096
2023-02-15T08:36:22.414Z,50.908096
2023-02-15T08:37:22.389Z,50.908096
2023-02-15T08:38:22.398Z,50.908096
2023-02-15T08:39:22.394Z,50.908096
2023-02-15T08:40:22.362Z,50.908096
2023-02-15T08:41:22.364Z,50.908096
2023-02-15T08:42:22.354Z,50.908096
2023-02-15T08:43:22.338Z,50.908096
2023-02-15T08:44:22.361Z,50.908096
2023-02-15T08:45:22.323Z,50.908096
2023-02-15T08:46:22.314Z,50.908134
2023-02-15T08:47:22.309Z,50.908108
2023-02-15T08:48:22.305Z,50.908112
2023-02-15T08:49:22.333Z,50.908039
2023-02-15T08:50:22.286Z,50.908081
2023-02-15T08:51:22.296Z,50.908108
2023-02-15T08:52:22.288Z,50.908150
2023-02-15T08:53:22.268Z,50.908115
2023-02-15T08:54:22.293Z,50.908119
2023-02-15T08:55:22.254Z,50.908146
2023-02-15T08:56:22.243Z,50.908146
2023-02-15T08:57:22.241Z,50.908154
2023-02-15T08:58:22.233Z,50.908173
2023-02-15T08:59:22.249Z,50.908192
2023-02-15T09:00:22.214Z,50.908184
2023-02-15T09:01:22.275Z,50.908142
2023-02-15T09:02:22.248Z,50.908165
2023-02-15T09:03:22.194Z,50.908161
2023-02-15T09:04:22.205Z,50.908173
2023-02-15T09:05:22.192Z,50.908154
2023-02-15T09:06:22.168Z,50.908203
2023-02-15T09:07:22.155Z,50.908169
2023-02-15T09:08:22.173Z,50.908138
2023-02-15T09:09:22.175Z,50.908150
2023-02-15T09:10:22.136Z,50.908184
2023-02-15T09:11:22.127Z,50.908218
2023-02-15T09:12:22.122Z,50.908131
2023-02-15T09:13:22.114Z,50.908138
2023-02-15T09:14:22.183Z,50.908146
2023-02-15T09:15:22.094Z,50.908127
2023-02-15T09:16:22.180Z,50.908157
2023-02-15T09:17:22.074Z,50.908131
2023-02-15T09:18:22.067Z,50.908112
2023-02-15T09:19:22.198Z,50.908123
2023-02-15T09:20:22.049Z,50.908123
2023-02-15T09:21:22.040Z,50.908089
2023-02-15T09:22:22.042Z,50.908123
2023-02-15T09:23:27.046Z,50.908096
2023-02-15T09:24:24.071Z,50.908085
2023-02-15T09:25:22.015Z,50.908089
2023-02-15T09:26:22.011Z,50.908112
2023-02-15T09:27:22.001Z,50.908115
2023-02-15T09:28:21.993Z,50.908119
2023-02-15T09:29:22.107Z,50.908146
2023-02-15T09:30:22.068Z,50.908123
2023-02-15T09:31:22.075Z,50.908096
2023-02-15T09:32:21.958Z,50.908104
2023-02-15T09:33:21.969Z,50.908112
2023-02-15T09:34:21.988Z,50.908085
2023-02-15T09:35:21.964Z,50.908066
2023-02-15T09:36:21.927Z,50.908100
2023-02-15T09:37:21.922Z,50.908134
2023-02-15T09:38:21.912Z,50.908138
2023-02-15T09:39:21.932Z,50.908131
2023-02-15T09:40:21.910Z,50.908138
2023-02-15T09:41:21.892Z,50.908100
2023-02-15T09:42:21.894Z,50.908115
2023-02-15T09:43:21.873Z,50.908127
2023-02-15T09:44:21.866Z,50.908089
2023-02-15T09:45:21.880Z,50.908127
2023-02-15T09:46:21.894Z,50.908112
2023-02-15T09:47:21.839Z,50.908104
2023-02-15T09:48:21.832Z,50.908100
2023-02-15T09:49:21.828Z,50.908081
2023-02-15T09:50:21.859Z,50.908073
2023-02-15T09:51:21.811Z,50.908081
2023-02-15T09:52:21.802Z,50.908119
2023-02-15T09:53:21.800Z,50.908073
2023-02-15T09:54:21.787Z,50.908134
2023-02-15T09:55:21.806Z,50.908112
2023-02-15T09:56:21.778Z,50.908134
2023-02-15T09:57:21.768Z,50.908085
2023-02-15T09:58:21.761Z,50.908115
2023-02-15T09:59:21.752Z,50.908104
2023-02-15T10:00:21.764Z,50.908104
2023-02-15T10:01:21.754Z,50.908112
2023-02-15T10:02:21.737Z,50.908131
2023-02-15T10:03:21.728Z,50.908112
2023-02-15T10:04:21.751Z,50.908123
2023-02-15T10:05:21.739Z,50.908089
2023-02-15T10:06:21.699Z,50.908096
2023-02-15T10:07:21.694Z,50.908165
2023-02-15T10:08:21.692Z,50.908230
2023-02-15T10:09:21.679Z,50.908081
2023-02-15T10:10:21.692Z,50.908062
2023-02-15T10:11:21.698Z,50.908112
2023-02-15T10:12:21.653Z,50.908054
2023-02-15T10:13:21.641Z,50.908085
2023-02-15T10:14:21.641Z,50.908146
2023-02-15T10:15:21.671Z,50.908154
2023-02-15T10:16:21.632Z,50.908123
2023-02-15T10:17:21.613Z,50.908112
2023-02-15T10:18:21.606Z,50.908131
2023-02-15T10:19:21.598Z,50.908115
2023-02-15T10:20:21.630Z,50.908092
2023-02-15T10:21:21.584Z,50.908092
2023-02-15T10:22:21.574Z,50.908104
2023-02-15T10:23:21.570Z,50.908146
2023-02-15T10:24:21.562Z,50.908165
2023-02-15T10:25:21.582Z,50.908195
2023-02-15T10:26:21.539Z,50.908127
2023-02-15T10:27:21.534Z,50.908154
2023-02-15T10:28:21.547Z,50.908173
2023-02-15T10:29:21.517Z,50.908154
2023-02-15T10:30:21.636Z,50.908127
2023-02-15T10:31:21.568Z,50.908119
2023-02-15T10:32:21.553Z,50.908112
2023-02-15T10:33:22.486Z,50.908169
2023-02-15T10:34:21.478Z,50.908062
2023-02-15T10:35:21.498Z,50.908081
2023-02-15T10:36:21.461Z,50.908131
2023-02-15T10:37:21.458Z,50.908108
2023-02-15T10:38:21.452Z,50.908092
2023-02-15T10:39:21.439Z,50.908115
2023-02-15T10:40:21.526Z,50.908157
2023-02-15T10:41:21.433Z,50.908066
2023-02-15T10:42:21.420Z,50.908104
2023-02-15T10:43:21.414Z,50.908085
2023-02-15T10:44:21.416Z,50.908108
2023-02-15T10:45:21.428Z,50.908077
2023-02-15T10:46:21.475Z,50.908092
2023-02-15T10:47:22.385Z,50.908070
2023-02-15T10:48:21.374Z,50.908077
2023-02-15T10:49:21.380Z,50.908031
2023-02-15T10:50:21.491Z,50.908085
2023-02-15T10:51:21.361Z,50.908104
2023-02-15T10:52:23.041Z,50.908092
2023-02-15T10:53:21.340Z,50.908077
2023-02-15T10:54:21.331Z,50.908073
2023-02-15T10:55:21.336Z,50.908077
2023-02-15T10:56:21.352Z,50.908089
2023-02-15T10:57:21.316Z,50.908131
2023-02-15T10:58:21.308Z,50.908089
2023-02-15T10:59:21.371Z,50.908081
2023-02-15T11:00:21.281Z,50.908085
2023-02-15T11:01:21.364Z,50.908096
2023-02-15T11:02:21.276Z,50.908077
2023-02-15T11:03:21.260Z,50.908096
2023-02-15T11:04:21.254Z,50.908081
2023-02-15T11:05:21.321Z,50.908100
2023-02-15T11:06:21.261Z,50.908039
2023-02-15T11:07:21.228Z,50.908047
2023-02-15T11:08:21.228Z,50.908043
2023-02-15T11:09:21.209Z,50.908047
2023-02-15T11:10:21.315Z,50.908051
2023-02-15T11:11:21.223Z,50.908054
2023-02-15T11:12:21.189Z,50.908077
2023-02-15T11:13:21.181Z,50.908070
2023-02-15T11:14:21.170Z,50.907932
2023-02-15T11:15:21.172Z,50.907997
2023-02-15T11:16:21.233Z,50.907967
2023-02-15T11:17:21.166Z,50.907997
2023-02-15T11:18:21.154Z,50.908066
2023-02-15T11:19:21.142Z,50.908066
2023-02-15T11:20:21.126Z,50.908127
2023-02-15T11:21:21.151Z,50.908092
2023-02-15T11:22:21.132Z,50.908062
2023-02-15T11:23:21.104Z,50.908028
2023-02-15T11:24:21.133Z,50.908043
2023-02-15T11:25:21.093Z,50.908051